Time;durP1;ratioP1;P1;durP2;ratioP2;P2;SDS_P1;SDS_P2;PMS_P1;PMS_P2;Temp;Humidity;BMP_temperature;BMP_pressure;BME280_temperature;BME280_humidity;BME280_pressure;Samples;Min_cycle;Max_cycle;Signal;HPM_P1;HPM_P2
2022/05/19 00:02:03;;;;;;;17.17;14.27;;;19.40;99.00;;;;;;5008325;28;20034;-71
2022/05/19 00:04:29;;;;;;;14.10;12.70;;;19.40;99.50;;;;;;5008553;28;20037;-71
2022/05/19 00:06:55;;;;;;;18.75;15.98;;;19.10;99.20;;;;;;5021813;28;20453;-71
2022/05/19 00:09:21;;;;;;;20.55;17.90;;;19.30;99.60;;;;;;5028476;28;20048;-71
2022/05/19 00:11:47;;;;;;;26.83;17.92;;;19.30;99.80;;;;;;5020598;28;20042;-71
2022/05/19 00:14:14;;;;;;;22.00;19.70;;;19.30;99.90;;;;;;5012280;28;20509;-71
2022/05/19 00:16:40;;;;;;;21.85;17.58;;;20.90;99.90;;;;;;5026807;28;20065;-71
2022/05/19 00:19:07;;;;;;;23.73;16.88;;;19.20;99.90;;;;;;5027006;28;20045;-71
2022/05/19 00:21:33;;;;;;;21.25;17.13;;;19.30;99.90;;;;;;5028465;28;20032;-71
2022/05/19 00:23:59;;;;;;;21.50;17.05;;;19.30;99.90;;;;;;5022166;28;20395;-71
2022/05/19 00:26:25;;;;;;;18.08;15.70;;;19.20;99.90;;;;;;5013573;28;20037;-71
2022/05/19 00:28:50;;;;;;;16.05;14.48;;;19.30;99.90;;;;;;5030196;28;20030;-71
2022/05/19 00:31:16;;;;;;;17.20;15.13;;;18.90;99.90;;;;;;5027896;28;20076;-71
2022/05/19 00:33:43;;;;;;;16.10;13.25;;;19.30;99.90;;;;;;5015608;28;20181;-71
2022/05/19 00:36:14;;;;;;;14.32;12.90;;;19.20;99.90;;;;;;5011727;28;20033;-71
2022/05/19 00:38:40;;;;;;;14.52;13.02;;;19.30;99.90;;;;;;5014047;28;20022;-71
2022/05/19 00:41:07;;;;;;;19.80;13.38;;;19.10;99.90;;;;;;5031324;28;20418;-71
2022/05/19 00:43:36;;;;;;;17.45;14.82;;;19.10;99.90;;;;;;5031461;28;20028;-71
2022/05/19 00:46:14;;;;;;;20.58;17.30;;;19.10;99.90;;;;;;5029653;28;20463;-71
2022/05/19 00:49:02;;;;;;;16.20;14.50;;;19.10;99.90;;;;;;5011513;28;20080;-71
2022/05/19 00:51:42;;;;;;;21.88;17.35;;;19.10;99.90;;;;;;5024742;28;20025;-71
2022/05/19 00:54:11;;;;;;;23.80;19.08;;;19.10;99.90;;;;;;5031281;28;20055;-71
2022/05/19 00:56:48;;;;;;;23.45;21.13;;;19.00;99.90;;;;;;5024375;28;20510;-71
2022/05/19 00:59:28;;;;;;;19.58;17.20;;;19.00;99.90;;;;;;5019820;28;20084;-71
2022/05/19 01:01:55;;;;;;;20.05;18.13;;;19.10;99.90;;;;;;5018110;28;20376;-72
2022/05/19 01:04:43;;;;;;;24.30;21.88;;;19.00;99.90;;;;;;5031148;28;20018;-71
2022/05/19 01:07:13;;;;;;;25.50;22.30;;;19.10;99.90;;;;;;5026165;28;20032;-70
2022/05/19 01:09:39;;;;;;;28.88;23.92;;;18.90;99.90;;;;;;5011387;28;20042;-71
2022/05/19 01:12:06;;;;;;;26.63;23.60;;;18.90;99.90;;;;;;5010954;28;20087;-71
2022/05/19 01:14:32;;;;;;;25.50;22.75;;;19.00;99.90;;;;;;5020653;28;20470;-71
2022/05/19 01:16:58;;;;;;;24.45;21.65;;;19.00;99.90;;;;;;5025576;28;20049;-71
2022/05/19 01:19:34;;;;;;;25.92;21.58;;;19.10;99.90;;;;;;5031072;28;20063;-71
2022/05/19 01:22:35;;;;;;;24.30;21.80;;;19.00;99.90;;;;;;5026990;28;20034;-71
2022/05/19 01:25:04;;;;;;;26.92;22.17;;;19.10;99.90;;;;;;5010839;28;20104;-70
2022/05/19 01:27:30;;;;;;;22.92;19.58;;;19.10;99.90;;;;;;5015291;28;20049;-70
2022/05/19 01:29:56;;;;;;;23.13;20.75;;;18.90;99.90;;;;;;5010577;28;20026;-70
2022/05/19 01:32:25;;;;;;;26.42;22.80;;;18.90;99.90;;;;;;5010636;28;20217;-70
2022/05/19 01:34:50;;;;;;;26.55;22.33;;;18.90;99.90;;;;;;5022208;28;20112;-70
2022/05/19 01:37:16;;;;;;;23.50;21.00;;;18.90;99.90;;;;;;5018574;28;20129;-70
2022/05/19 01:39:53;;;;;;;25.10;22.52;;;18.90;99.90;;;;;;5011037;28;20052;-70
2022/05/19 01:42:34;;;;;;;29.33;23.85;;;19.00;99.90;;;;;;5022372;28;20116;-70
2022/05/19 01:45:05;;;;;;;25.30;22.60;;;18.90;99.90;;;;;;5029690;28;20045;-71
2022/05/19 01:47:58;;;;;;;26.73;23.33;;;18.90;99.90;;;;;;5025315;28;20528;-71
2022/05/19 01:50:38;;;;;;;25.10;21.63;;;18.90;99.90;;;;;;5025997;28;20026;-70
2022/05/19 01:53:12;;;;;;;28.13;25.25;;;18.80;99.90;;;;;;5010213;28;20048;-71
2022/05/19 01:55:50;;;;;;;27.05;23.30;;;18.90;99.90;;;;;;5011537;28;20052;-70
2022/05/19 01:58:54;;;;;;;26.98;21.48;;;18.80;99.90;;;;;;5021092;28;20056;-71
2022/05/19 02:01:25;;;;;;;23.70;21.40;;;18.90;99.90;;;;;;4987994;28;20391;-71
2022/05/19 02:04:04;;;;;;;27.60;22.73;;;18.80;99.90;;;;;;4987793;28;20286;-71
2022/05/19 02:06:41;;;;;;;27.55;24.58;;;18.90;99.90;;;;;;4988375;28;20034;-70
2022/05/19 02:09:15;;;;;;;25.70;21.63;;;18.80;99.90;;;;;;4987937;28;20066;-71
2022/05/19 02:11:47;;;;;;;26.33;22.92;;;18.80;99.90;;;;;;4988321;28;20428;-71
2022/05/19 02:14:18;;;;;;;28.45;24.50;;;18.80;99.90;;;;;;4987659;28;20034;-71
2022/05/19 02:16:44;;;;;;;32.58;27.92;;;18.80;99.90;;;;;;4987566;28;20050;-71
2022/05/19 02:19:14;;;;;;;28.50;25.42;;;18.70;99.90;;;;;;4972028;28;20488;-70
2022/05/19 02:21:40;;;;;;;27.23;24.48;;;18.70;99.90;;;;;;4987810;28;20042;-70
2022/05/19 02:24:09;;;;;;;28.02;25.10;;;18.70;99.90;;;;;;4987764;28;20022;-71
2022/05/19 02:26:38;;;;;;;33.78;30.23;;;18.80;99.90;;;;;;4987607;28;20034;-71
2022/05/19 02:29:09;;;;;;;26.05;23.27;;;18.70;99.90;;;;;;4986682;28;20093;-71
2022/05/19 02:31:35;;;;;;;26.80;22.55;;;18.70;99.90;;;;;;4988058;28;20061;-70
2022/05/19 02:34:00;;;;;;;28.50;25.50;;;18.70;99.90;;;;;;4971278;28;20145;-70
2022/05/19 02:36:26;;;;;;;27.98;21.35;;;18.70;99.90;;;;;;5023266;28;20054;-71
2022/05/19 02:38:52;;;;;;;27.25;24.42;;;18.60;99.90;;;;;;5009812;28;20037;-71
2022/05/19 02:41:18;;;;;;;24.75;22.17;;;18.60;99.90;;;;;;5010752;28;20026;-71
2022/05/19 02:43:43;;;;;;;23.95;20.50;;;18.60;99.90;;;;;;5007938;28;20030;-71
2022/05/19 02:46:09;;;;;;;25.98;23.38;;;18.50;99.90;;;;;;5010634;28;20037;-71
2022/05/19 02:48:35;;;;;;;32.75;27.50;;;18.50;99.90;;;;;;5029003;28;20405;-71
2022/05/19 02:51:01;;;;;;;28.52;25.58;;;18.50;99.90;;;;;;5028883;28;20071;-71
2022/05/19 02:53:26;;;;;;;30.60;23.90;;;18.40;99.90;;;;;;5029351;28;20509;-70
2022/05/19 02:55:52;;;;;;;28.15;24.17;;;18.40;99.90;;;;;;5019583;28;20077;-70
2022/05/19 02:58:18;;;;;;;25.27;22.55;;;18.50;99.90;;;;;;5009184;28;20466;-71
2022/05/19 03:00:46;;;;;;;28.38;24.50;;;18.40;99.90;;;;;;5022956;28;20455;-70
2022/05/19 03:03:12;;;;;;;28.00;24.75;;;18.30;99.90;;;;;;5028949;28;20041;-71
2022/05/19 03:05:39;;;;;;;27.98;25.30;;;18.40;99.90;;;;;;5025941;28;20038;-71
2022/05/19 03:08:05;;;;;;;26.05;23.33;;;18.40;99.90;;;;;;5013736;28;20126;-71
2022/05/19 03:10:31;;;;;;;27.33;22.40;;;18.50;99.90;;;;;;5009425;28;20056;-71
2022/05/19 03:12:57;;;;;;;27.80;24.92;;;18.50;99.90;;;;;;5011220;28;20037;-73
2022/05/19 03:15:23;;;;;;;23.40;21.13;;;18.30;99.90;;;;;;5019790;28;20395;-71
2022/05/19 03:17:49;;;;;;;23.60;21.23;;;18.60;99.90;;;;;;5025796;28;20128;-71
2022/05/19 03:20:15;;;;;;;27.40;23.17;;;18.70;99.90;;;;;;5025538;28;20117;-71
2022/05/19 03:22:41;;;;;;;26.85;23.13;;;;;;;;;;5009268;28;20026;-71
2022/05/19 03:25:08;;;;;;;24.90;22.50;;;18.70;99.90;;;;;;5009946;28;20026;-70
2022/05/19 03:27:36;;;;;;;22.38;19.38;;;18.60;99.90;;;;;;5009896;28;20113;-71
2022/05/19 03:30:02;;;;;;;33.65;26.60;;;18.80;99.90;;;;;;5016781;28;20398;-71
2022/05/19 03:32:28;;;;;;;33.28;29.73;;;18.90;99.90;;;;;;5015857;28;20509;-71
2022/05/19 03:34:53;;;;;;;28.10;22.15;;;18.70;99.90;;;;;;5026875;28;20034;-70
2022/05/19 03:37:19;;;;;;;23.10;20.58;;;18.90;99.90;;;;;;5028608;28;20095;-71
2022/05/19 03:39:45;;;;;;;22.35;19.98;;;;;;;;;;5028201;28;20355;-71
2022/05/19 03:42:10;;;;;;;21.15;18.92;;;18.90;99.90;;;;;;5016942;28;20109;-71
2022/05/19 03:44:36;;;;;;;20.83;18.80;;;19.00;99.90;;;;;;5014239;28;20071;-71
2022/05/19 03:47:03;;;;;;;19.00;16.35;;;18.90;99.90;;;;;;5026212;28;20042;-70
2022/05/19 03:49:29;;;;;;;19.70;17.65;;;19.10;99.90;;;;;;5021255;28;20096;-71
2022/05/19 03:51:54;;;;;;;18.23;15.95;;;19.20;99.90;;;;;;5008416;28;20492;-71
2022/05/19 03:54:20;;;;;;;16.60;14.80;;;19.10;99.90;;;;;;5008815;28;20026;-71
2022/05/19 03:56:45;;;;;;;19.73;17.80;;;19.20;99.90;;;;;;5017551;28;20042;-71
2022/05/19 03:59:11;;;;;;;20.05;15.85;;;;;;;;;;5016814;28;20025;-71
2022/05/19 04:01:37;;;;;;;15.77;14.07;;;19.30;99.90;;;;;;5032190;28;20025;-71
2022/05/19 04:04:03;;;;;;;17.48;13.98;;;19.30;99.90;;;;;;5027488;28;20160;-70
2022/05/19 04:06:29;;;;;;;19.52;16.02;;;19.40;99.90;;;;;;5012721;28;20148;-71
2022/05/19 04:08:54;;;;;;;14.82;13.45;;;19.30;99.90;;;;;;5012284;28;20493;-71
2022/05/19 04:11:20;;;;;;;17.48;15.25;;;19.40;99.90;;;;;;5015510;28;20144;-71
2022/05/19 04:13:45;;;;;;;18.70;13.23;;;19.40;99.90;;;;;;5027084;28;20037;-71
2022/05/19 04:16:11;;;;;;;15.48;13.85;;;19.50;99.90;;;;;;5026974;28;20049;-70
2022/05/19 04:18:37;;;;;;;15.75;13.63;;;19.50;99.90;;;;;;5030304;28;20487;-71
2022/05/19 04:21:03;;;;;;;12.68;10.55;;;19.50;99.90;;;;;;5029954;28;20045;-71
2022/05/19 04:23:29;;;;;;;13.27;11.85;;;19.50;99.90;;;;;;5014316;28;20104;-71
2022/05/19 04:25:55;;;;;;;12.32;11.13;;;19.40;99.90;;;;;;5011562;28;20728;-71
2022/05/19 04:28:21;;;;;;;9.90;8.88;;;19.50;99.90;;;;;;5012837;28;20061;-71
2022/05/19 04:30:46;;;;;;;13.52;8.40;;;19.60;99.90;;;;;;5027411;28;20084;-71
2022/05/19 04:33:12;;;;;;;10.32;8.85;;;19.70;99.90;;;;;;5030348;28;20104;-71
2022/05/19 04:35:39;;;;;;;8.65;7.80;;;19.60;99.90;;;;;;5028684;28;20131;-71
2022/05/19 04:38:10;;;;;;;7.38;6.57;;;19.70;99.90;;;;;;5031010;28;20390;-71
2022/05/19 04:40:37;;;;;;;7.65;6.88;;;19.80;99.90;;;;;;5031353;28;20137;-71
2022/05/19 04:43:04;;;;;;;6.55;5.88;;;19.70;99.90;;;;;;5013056;28;20424;-71
2022/05/19 04:45:29;;;;;;;5.20;4.63;;;19.90;99.90;;;;;;5012027;28;20026;-71
2022/05/19 04:47:55;;;;;;;7.05;5.22;;;22.10;99.90;;;;;;5028499;28;20094;-71
2022/05/19 04:50:20;;;;;;;5.75;5.15;;;19.80;99.90;;;;;;5031451;28;20505;-71
2022/05/19 04:52:46;;;;;;;6.55;4.53;;;19.80;99.90;;;;;;5031198;28;20028;-71
2022/05/19 04:55:12;;;;;;;5.50;4.60;;;19.70;99.90;;;;;;5030939;28;20150;-71
2022/05/19 04:57:38;;;;;;;4.97;4.25;;;19.80;99.90;;;;;;5014634;28;20033;-71
2022/05/19 05:00:06;;;;;;;5.82;3.90;;;19.80;99.90;;;;;;5024883;28;20029;-71
2022/05/19 05:02:32;;;;;;;5.20;4.05;;;19.80;99.90;;;;;;5014126;28;20026;-71
2022/05/19 05:04:58;;;;;;;4.70;3.65;;;19.80;99.90;;;;;;5030255;28;20132;-71
2022/05/19 05:07:24;;;;;;;4.05;3.67;;;19.80;99.90;;;;;;5026399;28;20091;-71
2022/05/19 05:09:50;;;;;;;5.15;3.30;;;19.90;99.90;;;;;;5031158;28;20030;-71
2022/05/19 05:12:16;;;;;;;4.50;3.47;;;19.80;99.90;;;;;;5018850;28;20029;-71
2022/05/19 05:14:41;;;;;;;5.85;3.42;;;20.70;99.90;;;;;;5030097;28;20486;-71
2022/05/19 05:17:07;;;;;;;3.55;3.05;;;19.80;99.90;;;;;;5021684;28;20406;-71
2022/05/19 05:19:33;;;;;;;3.67;2.58;;;19.90;99.90;;;;;;5030802;28;20036;-71
2022/05/19 05:21:59;;;;;;;3.92;3.40;;;20.00;99.90;;;;;;5027540;28;20397;-71
2022/05/19 05:24:25;;;;;;;5.82;2.67;;;20.20;99.90;;;;;;5027841;28;20048;-71
2022/05/19 05:26:51;;;;;;;3.35;2.55;;;20.10;99.90;;;;;;5029435;28;20060;-68
2022/05/19 05:29:16;;;;;;;2.92;2.40;;;20.20;99.90;;;;;;5022676;28;20033;-69
2022/05/19 05:31:42;;;;;;;1.90;1.67;;;20.80;99.90;;;;;;5011452;28;20038;-68
2022/05/19 05:34:08;;;;;;;2.22;1.33;;;20.30;99.90;;;;;;5020281;28;20033;-68
2022/05/19 05:36:34;;;;;;;4.28;1.50;;;20.30;99.60;;;;;;5016557;28;20045;-68
2022/05/19 05:38:59;;;;;;;1.73;1.23;;;20.30;99.70;;;;;;5028946;28;20033;-69
2022/05/19 05:41:25;;;;;;;3.15;1.20;;;20.20;99.40;;;;;;5018997;28;20046;-68
2022/05/19 05:43:51;;;;;;;1.98;1.45;;;20.40;99.50;;;;;;5030280;28;20029;-68
2022/05/19 05:46:16;;;;;;;2.72;1.27;;;20.20;99.40;;;;;;5024848;28;20045;-68
2022/05/19 05:48:46;;;;;;;2.17;1.50;;;20.20;99.30;;;;;;5011123;28;20022;-68
2022/05/19 05:51:14;;;;;;;1.50;1.15;;;20.20;99.50;;;;;;5010514;28;20095;-68
2022/05/19 05:53:41;;;;;;;3.40;1.20;;;20.40;99.20;;;;;;5010978;28;20026;-68
2022/05/19 05:56:09;;;;;;;2.00;1.38;;;20.50;99.00;;;;;;5010408;28;20099;-68
2022/05/19 05:58:35;;;;;;;1.88;1.38;;;20.60;98.20;;;;;;5017508;28;20044;-68
2022/05/19 06:01:05;;;;;;;6.38;1.38;;;20.50;98.70;;;;;;5030412;28;20053;-70
2022/05/19 06:03:32;;;;;;;2.78;1.38;;;20.60;98.70;;;;;;5030699;28;20119;-68
2022/05/19 06:05:58;;;;;;;2.28;1.38;;;21.80;98.50;;;;;;5029786;28;20026;-70
2022/05/19 06:08:24;;;;;;;1.88;1.27;;;20.70;98.30;;;;;;5021499;28;20498;-68
2022/05/19 06:10:50;;;;;;;1.73;1.00;;;20.80;98.10;;;;;;5010485;28;20041;-69
2022/05/19 06:13:15;;;;;;;1.63;1.33;;;20.60;98.00;;;;;;5010449;28;20045;-70
2022/05/19 06:15:42;;;;;;;2.60;1.30;;;20.50;98.10;;;;;;5010574;28;20446;-68
2022/05/19 06:18:08;;;;;;;2.65;2.17;;;;;;;;;;5010210;28;20046;-70
2022/05/19 06:20:35;;;;;;;2.70;1.38;;;20.40;97.70;;;;;;5018457;28;20044;-68
2022/05/19 06:23:00;;;;;;;1.92;1.60;;;20.50;99.20;;;;;;5012354;28;20032;-68
2022/05/19 06:25:26;;;;;;;2.53;1.83;;;20.30;99.10;;;;;;5012954;28;20026;-68
2022/05/19 06:27:52;;;;;;;2.35;1.77;;;20.30;99.30;;;;;;5029246;28;20037;-68
2022/05/19 06:30:19;;;;;;;2.28;1.38;;;20.40;99.40;;;;;;5029672;28;20056;-68
2022/05/19 06:32:47;;;;;;;5.68;1.58;;;20.50;99.50;;;;;;5027858;28;20120;-68
2022/05/19 06:35:15;;;;;;;3.03;1.65;;;21.20;99.50;;;;;;5028955;28;20452;-68
2022/05/19 06:37:41;;;;;;;1.90;1.58;;;20.70;99.40;;;;;;5029386;28;20487;-69
2022/05/19 06:40:07;;;;;;;2.42;1.90;;;20.90;98.90;;;;;;5029211;28;20079;-68
2022/05/19 06:42:33;;;;;;;2.90;1.90;;;20.80;98.90;;;;;;5029506;28;20040;-68
2022/05/19 06:45:00;;;;;;;2.72;2.00;;;20.90;99.90;;;;;;5022766;28;20441;-68
2022/05/19 06:47:26;;;;;;;2.85;2.25;;;21.20;98.50;;;;;;5029167;28;20030;-68
2022/05/19 06:49:54;;;;;;;3.92;2.42;;;21.00;98.30;;;;;;5027569;28;20121;-68
2022/05/19 06:52:23;;;;;;;3.78;1.55;;;21.00;98.40;;;;;;5020724;28;20029;-69
2022/05/19 06:54:51;;;;;;;2.10;1.88;;;20.90;98.60;;;;;;5025782;28;20087;-69
2022/05/19 06:57:19;;;;;;;2.42;2.00;;;21.10;98.40;;;;;;5024957;28;20029;-70
2022/05/19 06:59:45;;;;;;;3.08;2.13;;;21.10;98.10;;;;;;5028902;28;20483;-69
2022/05/19 07:02:11;;;;;;;5.10;1.88;;;21.10;97.90;;;;;;5028686;28;20049;-69
2022/05/19 07:04:37;;;;;;;4.13;2.17;;;21.30;97.70;;;;;;5027641;28;20048;-69
2022/05/19 07:07:07;;;;;;;3.83;1.80;;;21.50;97.70;;;;;;5026936;28;20037;-69
2022/05/19 07:09:34;;;;;;;2.55;1.52;;;21.50;97.30;;;;;;5028822;28;20025;-69
2022/05/19 07:12:00;;;;;;;3.38;1.90;;;21.50;97.50;;;;;;5028471;28;20030;-69
2022/05/19 07:14:27;;;;;;;2.75;1.30;;;21.60;97.30;;;;;;5028873;28;20030;-69
2022/05/19 07:16:52;;;;;;;5.72;2.20;;;21.70;97.30;;;;;;5028473;28;20053;-69
2022/05/19 07:22:04;;;;;;;4.00;1.95;;;22.00;96.10;;;;;;5028342;28;20025;-69
2022/05/19 07:24:31;;;;;;;2.40;1.40;;;22.20;96.90;;;;;;5028313;28;20033;-69
2022/05/19 07:26:58;;;;;;;3.08;2.05;;;23.40;96.80;;;;;;5028445;28;20036;-69
2022/05/19 07:29:25;;;;;;;4.90;2.97;;;22.20;96.50;;;;;;5029137;28;20025;-69
2022/05/19 07:31:52;;;;;;;2.70;1.33;;;22.30;96.40;;;;;;5025714;28;20079;-68
2022/05/19 07:34:20;;;;;;;3.38;1.70;;;22.40;96.30;;;;;;5029169;28;20021;-68
2022/05/19 07:36:46;;;;;;;3.17;1.98;;;22.50;96.20;;;;;;5030636;28;20470;-69
2022/05/19 07:39:12;;;;;;;2.75;2.28;;;22.50;95.50;;;;;;5032672;28;20087;-69
2022/05/19 07:41:38;;;;;;;2.88;1.65;;;22.60;95.50;;;;;;5032707;28;20025;-68
2022/05/19 07:44:06;;;;;;;2.45;1.77;;;22.70;95.50;;;;;;5032513;28;20029;-69
2022/05/19 07:46:32;;;;;;;2.45;1.98;;;22.70;95.30;;;;;;5032854;28;20032;-69
2022/05/19 07:48:58;;;;;;;5.43;2.28;;;22.70;95.00;;;;;;5032320;28;20026;-69
2022/05/19 07:51:27;;;;;;;2.95;1.95;;;22.80;94.80;;;;;;5032813;28;20090;-69
2022/05/19 07:53:53;;;;;;;3.50;1.90;;;22.80;94.90;;;;;;5032249;28;20177;-69
2022/05/19 07:56:19;;;;;;;1.95;1.60;;;22.80;94.90;;;;;;5032321;28;20544;-69
2022/05/19 07:58:46;;;;;;;2.45;1.90;;;23.00;94.90;;;;;;5032024;28;20025;-69
2022/05/19 08:01:13;;;;;;;2.30;2.10;;;22.90;94.80;;;;;;5032251;28;20112;-69
2022/05/19 08:03:38;;;;;;;3.53;2.70;;;22.90;94.70;;;;;;5032196;28;20021;-68
2022/05/19 08:06:07;;;;;;;3.28;1.75;;;23.00;94.50;;;;;;5031249;28;20036;-69
2022/05/19 08:08:34;;;;;;;3.80;2.28;;;23.10;94.60;;;;;;5031355;28;20037;-69
2022/05/19 08:10:59;;;;;;;2.30;1.58;;;23.20;94.80;;;;;;5031824;28;20025;-69
2022/05/19 08:16:20;;;;;;;3.22;2.92;;;23.50;93.40;;;;;;4992287;28;20145;-68
2022/05/19 08:18:45;;;;;;;3.97;2.92;;;23.60;93.80;;;;;;4989649;28;20139;-69
2022/05/19 08:21:12;;;;;;;3.45;2.55;;;23.50;93.40;;;;;;4989879;28;20042;-69
2022/05/19 08:23:41;;;;;;;3.67;2.20;;;23.70;93.50;;;;;;4990571;28;20027;-70
2022/05/19 08:26:10;;;;;;;4.63;2.20;;;23.90;93.40;;;;;;4989697;28;20171;-68
2022/05/19 08:28:37;;;;;;;3.30;1.88;;;24.10;92.90;;;;;;4972647;28;20519;-69
2022/05/19 08:31:06;;;;;;;3.75;2.85;;;24.30;93.00;;;;;;4990477;28;20042;-69
2022/05/19 08:33:33;;;;;;;3.60;3.30;;;24.60;92.90;;;;;;5008070;28;20069;-69
2022/05/19 08:35:59;;;;;;;3.55;3.00;;;24.80;92.10;;;;;;4985222;28;20038;-69
2022/05/19 08:38:25;;;;;;;5.30;4.75;;;24.80;91.90;;;;;;4990438;28;20034;-70
2022/05/19 08:40:55;;;;;;;3.85;3.17;;;24.80;91.90;;;;;;4990021;28;20038;-70
2022/05/19 08:43:26;;;;;;;4.88;4.47;;;24.90;91.90;;;;;;4989699;28;20046;-70
2022/05/19 08:45:58;;;;;;;4.28;3.50;;;24.90;92.00;;;;;;4989869;28;20042;-69
2022/05/19 08:48:26;;;;;;;4.97;3.65;;;25.10;92.00;;;;;;4989490;28;20027;-70
2022/05/19 08:51:06;;;;;;;5.43;4.90;;;25.20;91.80;;;;;;4989672;28;20027;-70
2022/05/19 08:53:36;;;;;;;6.80;6.10;;;25.30;90.60;;;;;;5024158;28;20029;-70
2022/05/19 08:56:23;;;;;;;8.10;6.05;;;25.20;91.20;;;;;;5031173;28;20033;-71
2022/05/19 08:59:06;;;;;;;6.65;4.30;;;25.30;89.40;;;;;;5031513;28;20026;-70
2022/05/19 09:01:43;;;;;;;4.97;4.47;;;25.30;89.80;;;;;;5031494;28;20021;-70
2022/05/19 09:04:29;;;;;;;6.88;5.97;;;25.20;89.80;;;;;;5031116;28;20037;-71
2022/05/19 09:09:48;;;;;;;6.38;4.55;;;25.30;89.30;;;;;;5030880;28;20033;-70
2022/05/19 09:12:22;;;;;;;4.53;3.78;;;25.30;89.10;;;;;;5030519;28;20036;-71
2022/05/19 09:14:48;;;;;;;5.10;3.47;;;25.50;88.90;;;;;;5021181;28;20034;-71
2022/05/19 09:17:14;;;;;;;4.47;3.25;;;25.50;89.80;;;;;;5031149;28;20499;-71
2022/05/19 09:19:49;;;;;;;5.82;3.88;;;25.60;89.30;;;;;;5031556;28;20056;-70
2022/05/19 09:22:24;;;;;;;4.70;4.30;;;26.70;90.00;;;;;;5031163;28;20026;-70
2022/05/19 09:24:52;;;;;;;4.60;4.05;;;25.90;87.40;;;;;;5030678;28;20018;-71
2022/05/19 09:27:19;;;;;;;5.68;4.57;;;26.10;88.50;;;;;;5029061;28;20025;-71
2022/05/19 09:29:49;;;;;;;7.18;5.20;;;26.20;87.30;;;;;;5030141;28;20026;-71
2022/05/19 09:32:15;;;;;;;7.07;4.72;;;26.20;87.10;;;;;;5028388;28;20420;-70
2022/05/19 09:34:47;;;;;;;5.65;3.83;;;26.40;86.20;;;;;;5023832;28;20160;-70
2022/05/19 09:37:14;;;;;;;6.28;4.55;;;26.60;87.00;;;;;;5032758;28;20029;-70
2022/05/19 09:39:52;;;;;;;6.22;5.72;;;27.50;86.40;;;;;;5031164;28;20096;-70
2022/05/19 09:42:34;;;;;;;5.60;5.10;;;27.00;83.90;;;;;;5030941;28;20410;-71
2022/05/19 09:45:00;;;;;;;6.35;5.20;;;27.30;85.20;;;;;;5030276;28;20021;-72
2022/05/19 09:47:37;;;;;;;5.05;4.55;;;27.00;83.60;;;;;;5031070;28;20359;-71
2022/05/19 09:50:31;;;;;;;5.65;3.58;;;27.10;84.20;;;;;;5030503;28;20028;-70
2022/05/19 09:53:05;;;;;;;4.43;3.80;;;27.20;83.50;;;;;;5014704;28;20402;-70
2022/05/19 09:55:31;;;;;;;6.20;4.25;;;27.10;81.30;;;;;;5031156;28;20064;-71
2022/05/19 09:57:59;;;;;;;5.90;4.55;;;27.10;82.50;;;;;;5027020;28;20136;-71
2022/05/19 10:00:34;;;;;;;3.65;3.33;;;27.10;82.70;;;;;;5030880;28;20021;-70
2022/05/19 10:03:01;;;;;;;5.20;3.92;;;27.10;83.50;;;;;;5024899;28;20070;-71
2022/05/19 10:05:42;;;;;;;5.25;4.03;;;26.90;82.60;;;;;;5010783;28;20033;-71
2022/05/19 10:08:18;;;;;;;5.00;4.47;;;27.00;83.30;;;;;;5018219;28;20075;-71
2022/05/19 10:11:06;;;;;;;4.70;3.85;;;26.80;80.70;;;;;;5030338;28;20022;-71
2022/05/19 10:13:55;;;;;;;6.75;5.10;;;26.70;83.20;;;;;;5030051;28;20112;-71
2022/05/19 10:16:31;;;;;;;6.45;5.53;;;26.50;83.30;;;;;;5028018;28;20405;-71
2022/05/19 10:19:06;;;;;;;5.15;4.65;;;26.30;81.30;;;;;;5029549;28;20079;-71
2022/05/19 10:21:56;;;;;;;8.55;5.82;;;26.30;81.30;;;;;;5029951;28;20022;-71
2022/05/19 10:24:40;;;;;;;6.80;5.55;;;26.20;82.20;;;;;;5029925;28;20024;-71
2022/05/19 10:31:05;;;;;;;8.15;5.80;;;26.30;81.80;;;;;;5018437;28;20035;-71
2022/05/19 10:33:36;;;;;;;8.68;5.43;;;26.30;82.10;;;;;;5010133;28;20033;-71
2022/05/19 10:36:11;;;;;;;6.20;4.93;;;26.30;81.30;;;;;;5029120;28;20045;-71
2022/05/19 10:39:14;;;;;;;6.32;5.38;;;26.40;83.80;;;;;;5029312;28;20018;-71
2022/05/19 10:41:56;;;;;;;6.13;5.40;;;26.30;82.40;;;;;;5022435;28;20509;-71
2022/05/19 10:44:43;;;;;;;9.67;5.93;;;26.50;83.10;;;;;;5029266;28;20028;-72
2022/05/19 10:47:23;;;;;;;7.43;6.60;;;26.60;81.30;;;;;;5029483;28;20048;-71
2022/05/19 10:50:07;;;;;;;5.55;4.80;;;26.60;79.90;;;;;;5029110;28;20025;-71
2022/05/19 10:53:02;;;;;;;;;;;26.60;79.50;;;;;;5029741;28;20770;-71
2022/05/19 10:55:52;;;;;;;7.93;5.45;;;26.60;80.50;;;;;;5026631;28;19913;-71
2022/05/19 10:58:39;;;;;;;6.95;4.95;;;26.50;80.40;;;;;;5024094;28;20425;-71
2022/05/19 11:01:28;;;;;;;8.55;6.47;;;26.80;80.20;;;;;;5029249;28;20036;-71
2022/05/19 11:04:12;;;;;;;5.90;5.38;;;26.80;79.30;;;;;;5028844;28;20038;-71
2022/05/19 11:06:56;;;;;;;6.30;4.47;;;26.90;78.80;;;;;;5029346;28;20096;-71
2022/05/19 11:09:41;;;;;;;7.28;4.72;;;27.10;78.60;;;;;;5028706;28;20032;-72
2022/05/19 11:12:40;;;;;;;4.63;4.05;;;27.20;78.50;;;;;;5027913;28;20188;-71
2022/05/19 11:15:15;;;;;;;7.75;3.38;;;27.50;77.70;;;;;;5028716;28;20402;-71
2022/05/19 11:18:03;;;;;;;6.63;4.00;;;27.70;76.20;;;;;;5028913;28;20090;-71
2022/05/19 11:20:38;;;;;;;4.95;3.17;;;27.70;79.20;;;;;;5025112;28;20032;-72
2022/05/19 11:23:15;;;;;;;5.75;3.65;;;28.00;78.40;;;;;;5040610;28;20398;-71
2022/05/19 11:29:10;;;;;;;5.15;2.45;;;27.70;78.20;;;;;;5028163;28;20125;-71
2022/05/19 11:32:05;;;;;;;4.85;3.50;;;28.30;79.10;;;;;;5014111;28;20469;-71
2022/05/19 11:34:51;;;;;;;5.28;2.90;;;27.60;76.90;;;;;;5029259;28;20406;-71
2022/05/19 11:37:36;;;;;;;4.70;3.03;;;27.40;76.40;;;;;;5029168;28;20064;-71
2022/05/19 11:40:12;;;;;;;5.10;3.22;;;27.20;78.60;;;;;;5027176;28;20029;-71
2022/05/19 11:42:57;;;;;;;4.60;2.85;;;26.80;76.10;;;;;;5027883;28;20017;-71
2022/05/19 11:45:34;;;;;;;5.13;3.03;;;26.80;77.80;;;;;;5028102;28;20040;-71
2022/05/19 11:57:40;;;;;;;5.53;3.80;;;26.00;81.50;;;;;;5029274;28;20157;-71
2022/05/19 12:00:07;;;;;;;4.95;3.72;;;26.00;83.90;;;;;;5027297;28;20041;-71
2022/05/19 12:02:40;;;;;;;4.60;3.60;;;25.70;85.90;;;;;;5028483;28;20104;-71
2022/05/19 12:05:18;;;;;;;9.50;3.83;;;26.60;87.80;;;;;;5018240;28;20034;-71
2022/05/19 12:07:50;;;;;;;4.40;3.05;;;25.70;87.40;;;;;;5008925;28;20041;-71
2022/05/19 12:10:23;;;;;;;3.83;3.30;;;26.40;88.10;;;;;;5024602;28;20462;-71
2022/05/19 12:12:57;;;;;;;7.38;3.08;;;25.30;87.70;;;;;;5028147;28;20021;-70
2022/05/19 12:15:54;;;;;;;7.88;2.65;;;25.10;88.60;;;;;;5028527;28;20091;-70
2022/05/19 12:18:23;;;;;;;10.07;1.83;;;25.00;89.10;;;;;;5026999;28;20091;-70
2022/05/19 12:21:14;;;;;;;12.90;3.17;;;23.30;92.60;;;;;;5028557;28;20022;-71
2022/05/19 12:23:42;;;;;;;6.20;1.48;;;21.40;96.20;;;;;;5030545;28;20413;-71
2022/05/19 12:26:15;;;;;;;4.68;1.23;;;19.60;99.90;;;;;;5031527;28;20032;-72
2022/05/19 12:28:57;;;;;;;8.07;1.13;;;18.70;99.90;;;;;;5031857;28;20048;-71
2022/05/19 12:34:16;;;;;;;1.30;0.40;;;17.00;99.90;;;;;;5031552;28;20056;-70
2022/05/19 12:36:51;;;;;;;3.63;0.85;;;16.80;99.90;;;;;;5032166;28;20041;-70
2022/05/19 12:39:16;;;;;;;1.77;0.85;;;16.70;99.90;;;;;;5031478;28;20029;-70
2022/05/19 12:41:48;;;;;;;2.85;1.10;;;16.80;99.90;;;;;;5032368;28;20028;-70
2022/05/19 12:44:34;;;;;;;2.00;1.25;;;16.80;99.90;;;;;;5031828;28;20108;-70
2022/05/19 12:47:07;;;;;;;3.33;1.45;;;17.00;99.90;;;;;;5031751;28;20025;-70
2022/05/19 12:49:35;;;;;;;4.97;1.80;;;;;;;;;;5030715;28;20022;-70
2022/05/19 12:52:17;;;;;;;3.40;2.53;;;17.10;99.90;;;;;;5026681;28;20117;-70
2022/05/19 12:55:27;;;;;;;3.65;2.50;;;17.00;99.90;;;;;;5027074;28;20036;-70
2022/05/19 12:57:55;;;;;;;7.53;3.28;;;17.10;99.90;;;;;;5010440;28;20495;-71
2022/05/19 13:00:36;;;;;;;6.55;2.85;;;17.20;99.90;;;;;;5011773;28;20479;-70
2022/05/19 13:03:18;;;;;;;3.33;2.40;;;17.10;99.90;;;;;;5011674;28;20084;-71
2022/05/19 13:06:00;;;;;;;4.53;3.28;;;17.00;99.90;;;;;;5023773;28;20022;-71
2022/05/19 13:08:43;;;;;;;8.80;4.82;;;17.10;99.90;;;;;;5014881;28;20087;-71
2022/05/19 13:11:11;;;;;;;5.20;3.88;;;17.30;99.90;;;;;;5023938;28;20378;-71
2022/05/19 13:13:51;;;;;;;5.18;3.35;;;17.10;99.90;;;;;;5030944;28;20514;-70
2022/05/19 13:16:18;;;;;;;7.07;3.90;;;17.20;99.90;;;;;;5030061;28;20440;-71
2022/05/19 13:18:52;;;;;;;6.43;4.32;;;17.10;99.90;;;;;;5046410;28;20053;-70
2022/05/19 13:21:28;;;;;;;5.70;3.40;;;17.20;99.90;;;;;;5030826;28;20036;-70
2022/05/19 13:23:54;;;;;;;5.22;3.75;;;17.20;99.90;;;;;;5030392;28;20022;-72
2022/05/19 13:26:29;;;;;;;6.45;3.10;;;17.40;99.90;;;;;;5030876;28;20088;-70
2022/05/19 13:32:12;;;;;;;7.55;4.72;;;16.90;99.90;;;;;;5008425;28;20037;-70